createdAt,value
2022-08-29T00:00:41.898Z,70.48
2022-08-29T00:03:13.270Z,70.29
2022-08-29T00:05:45.230Z,70.15
2022-08-29T00:08:21.837Z,70.14
2022-08-29T00:10:53.733Z,70.41
2022-08-29T00:13:25.058Z,70.07
2022-08-29T00:15:56.412Z,70.53
2022-08-29T00:18:27.726Z,70.20
2022-08-29T00:20:59.041Z,70.26
2022-08-29T00:23:30.557Z,70.61
2022-08-29T00:26:01.956Z,70.62
2022-08-29T00:28:33.503Z,70.57
2022-08-29T00:31:04.877Z,70.42
2022-08-29T00:33:39.304Z,70.72
2022-08-29T00:36:11.289Z,70.82
2022-08-29T00:38:42.665Z,70.28
2022-08-29T00:41:14.846Z,70.51
2022-08-29T00:43:46.557Z,70.47
2022-08-29T00:46:42.572Z,70.82
2022-08-29T00:49:32.263Z,70.92
2022-08-29T00:52:10.976Z,70.62
2022-08-29T00:54:45.456Z,70.68
2022-08-29T00:57:20.062Z,70.55
2022-08-29T00:59:51.806Z,70.89
2022-08-29T01:02:23.722Z,70.59
2022-08-29T01:04:55.562Z,70.41
2022-08-29T01:07:27.279Z,70.46
2022-08-29T01:09:58.586Z,70.91
2022-08-29T01:12:30.725Z,70.88
2022-08-29T01:15:06.866Z,70.90
2022-08-29T01:17:44.115Z,70.93
2022-08-29T01:20:35.394Z,71.18
2022-08-29T01:23:20.724Z,71.28
2022-08-29T01:25:52.803Z,70.97
2022-08-29T01:28:40.283Z,71.35
2022-08-29T01:31:37.242Z,71.12
2022-08-29T01:34:09.388Z,71.10
2022-08-29T01:36:53.504Z,70.89
2022-08-29T01:39:28.315Z,71.34
2022-08-29T01:42:02.321Z,71.23
2022-08-29T01:44:33.646Z,71.38
2022-08-29T01:47:06.512Z,71.28
2022-08-29T01:49:40.569Z,71.32
2022-08-29T01:52:12.754Z,71.27
2022-08-29T01:54:45.166Z,71.27
2022-08-29T01:57:17.496Z,71.11
2022-08-29T01:59:49.172Z,71.16
2022-08-29T02:02:24.431Z,71.19
2022-08-29T02:04:58.534Z,71.42
2022-08-29T02:07:29.902Z,71.38
2022-08-29T02:10:01.327Z,71.20
2022-08-29T02:12:32.890Z,71.72
2022-08-29T02:15:06.069Z,71.50
2022-08-29T02:17:38.448Z,71.44
2022-08-29T02:20:10.626Z,71.32
2022-08-29T02:22:42.540Z,71.49
2022-08-29T02:25:32.745Z,71.59
2022-08-29T02:28:04.381Z,71.64
2022-08-29T02:30:35.938Z,71.66
2022-08-29T02:33:08.798Z,71.71
2022-08-29T02:35:42.873Z,71.76
2022-08-29T02:38:15.708Z,71.65
2022-08-29T02:40:49.050Z,71.78
2022-08-29T02:43:21.420Z,71.70
2022-08-29T02:45:53.675Z,71.85
2022-08-29T02:48:25.106Z,71.68
2022-08-29T02:50:59.051Z,71.74
2022-08-29T02:53:31.601Z,71.78
2022-08-29T02:56:03.313Z,72.04
2022-08-29T02:58:34.922Z,71.87
2022-08-29T03:01:06.415Z,71.96
2022-08-29T03:03:37.902Z,72.05
2022-08-29T03:06:09.804Z,72.26
2022-08-29T03:08:41.241Z,72.34
2022-08-29T03:11:12.602Z,72.22
2022-08-29T03:13:45.366Z,72.24
2022-08-29T03:16:18.175Z,72.41
2022-08-29T03:18:49.546Z,72.21
2022-08-29T03:21:25.130Z,72.33
2022-08-29T03:23:56.663Z,72.09
2022-08-29T03:26:28.039Z,72.44
2022-08-29T03:28:59.325Z,72.03
2022-08-29T03:31:30.719Z,72.12
2022-08-29T03:34:02.069Z,72.82
2022-08-29T03:36:33.697Z,72.17
2022-08-29T03:39:05.002Z,72.31
2022-08-29T03:41:36.384Z,72.41
2022-08-29T03:44:07.694Z,72.37
2022-08-29T03:46:39.456Z,72.55
2022-08-29T03:49:10.997Z,72.66
2022-08-29T03:51:42.449Z,72.78
2022-08-29T03:54:13.744Z,72.69
2022-08-29T03:56:46.066Z,72.93
2022-08-29T03:59:18.288Z,72.79
2022-08-29T04:01:50.801Z,72.96
2022-08-29T04:04:40.911Z,72.51
2022-08-29T04:07:14.651Z,72.79
2022-08-29T04:09:46.132Z,72.92
2022-08-29T04:12:17.630Z,72.88
2022-08-29T04:14:48.988Z,72.95
2022-08-29T04:17:20.292Z,72.71
2022-08-29T04:19:51.601Z,72.76
2022-08-29T04:22:22.904Z,73.19
2022-08-29T04:24:54.209Z,72.97
2022-08-29T04:27:25.545Z,73.04
2022-08-29T04:29:56.938Z,73.43
2022-08-29T04:32:28.286Z,73.42
2022-08-29T04:34:59.841Z,73.57
2022-08-29T04:37:31.400Z,73.38
2022-08-29T04:40:03.211Z,73.49
2022-08-29T04:42:38.569Z,73.54
2022-08-29T04:45:14.538Z,73.63
2022-08-29T04:47:46.269Z,73.42
2022-08-29T04:50:22.326Z,73.03
2022-08-29T04:52:53.555Z,73.09
2022-08-29T04:55:25.820Z,73.12
2022-08-29T04:57:57.311Z,73.40
2022-08-29T05:00:30.426Z,73.76
2022-08-29T05:03:02.441Z,73.94
2022-08-29T05:05:33.838Z,73.76
2022-08-29T05:08:05.136Z,73.91
2022-08-29T05:10:37.225Z,74.08
2022-08-29T05:13:08.561Z,74.38
2022-08-29T05:15:40.073Z,74.55
2022-08-29T05:18:13.348Z,74.46
2022-08-29T05:20:47.636Z,74.53
2022-08-29T05:23:19.095Z,74.60
2022-08-29T05:25:56.846Z,74.86
2022-08-29T05:28:30.354Z,74.88
2022-08-29T05:31:02.001Z,75.02
2022-08-29T05:33:33.486Z,75.10
2022-08-29T05:36:05.895Z,74.48
2022-08-29T05:38:37.444Z,74.50
2022-08-29T05:41:09.020Z,74.50
2022-08-29T05:43:40.338Z,74.68
2022-08-29T05:46:11.848Z,74.60
2022-08-29T05:48:43.225Z,74.32
2022-08-29T05:51:16.350Z,74.41
2022-08-29T05:53:48.312Z,74.27
2022-08-29T05:56:25.789Z,74.26
2022-08-29T05:58:57.174Z,74.50
2022-08-29T06:01:32.775Z,74.26
2022-08-29T06:04:04.570Z,74.03
2022-08-29T06:06:36.112Z,74.35
2022-08-29T06:09:08.674Z,74.57
2022-08-29T06:11:40.470Z,74.70
2022-08-29T06:14:13.684Z,74.86
2022-08-29T06:16:45.196Z,74.69
2022-08-29T06:19:16.925Z,74.68
2022-08-29T06:21:48.742Z,75.08
2022-08-29T06:24:20.084Z,75.06
2022-08-29T06:26:51.412Z,75.09
2022-08-29T06:29:22.920Z,75.14
2022-08-29T06:31:57.952Z,74.88
2022-08-29T06:34:30.222Z,75.08
2022-08-29T06:37:01.527Z,75.07
2022-08-29T06:39:32.913Z,74.98
2022-08-29T06:42:04.355Z,74.98
2022-08-29T06:44:35.800Z,74.38
2022-08-29T06:47:07.089Z,74.64
2022-08-29T06:49:38.389Z,74.35
2022-08-29T06:52:09.740Z,74.07
2022-08-29T06:54:41.028Z,74.07
2022-08-29T06:57:12.378Z,73.68
2022-08-29T06:59:43.710Z,73.33
2022-08-29T07:02:15.062Z,73.21
2022-08-29T07:04:46.397Z,72.86
2022-08-29T07:07:17.798Z,72.22
2022-08-29T07:09:49.154Z,71.91
2022-08-29T07:12:20.458Z,71.45
2022-08-29T07:14:55.714Z,70.32
2022-08-29T07:17:28.119Z,70.18
2022-08-29T07:19:59.533Z,69.73
2022-08-29T07:22:34.572Z,69.04
2022-08-29T07:25:07.287Z,69.31
2022-08-29T07:27:38.634Z,68.73
2022-08-29T07:30:10.746Z,68.16
2022-08-29T07:32:45.983Z,67.82
2022-08-29T07:35:29.564Z,67.94
2022-08-29T07:38:02.132Z,67.52
2022-08-29T07:40:33.497Z,67.55
2022-08-29T07:43:05.735Z,67.54
2022-08-29T07:45:38.962Z,67.47
2022-08-29T07:48:10.344Z,67.30
2022-08-29T07:50:42.612Z,67.49
2022-08-29T07:53:14.642Z,67.28
2022-08-29T07:55:46.700Z,66.51
2022-08-29T07:58:18.075Z,66.55
2022-08-29T08:00:49.427Z,66.55
2022-08-29T08:03:21.642Z,66.56
2022-08-29T08:05:53.461Z,66.42
2022-08-29T08:08:24.828Z,66.44
2022-08-29T08:10:56.130Z,65.63
2022-08-29T08:13:28.609Z,65.19
2022-08-29T08:16:04.642Z,64.82
2022-08-29T08:18:37.644Z,64.90
2022-08-29T08:21:09.766Z,64.89
2022-08-29T08:23:42.216Z,64.58
2022-08-29T08:26:14.395Z,64.70
2022-08-29T08:28:46.223Z,64.45
2022-08-29T08:31:18.434Z,64.44
2022-08-29T08:33:50.156Z,64.17
2022-08-29T08:36:30.836Z,63.27
2022-08-29T08:39:02.164Z,62.89
2022-08-29T08:41:33.448Z,62.50
2022-08-29T08:44:12.442Z,61.81
2022-08-29T08:46:47.734Z,62.36
2022-08-29T08:49:21.756Z,61.66
2022-08-29T08:51:58.760Z,61.72
2022-08-29T08:54:34.869Z,61.74
2022-08-29T08:57:13.017Z,60.98
2022-08-29T08:59:50.138Z,60.89
2022-08-29T09:02:51.274Z,60.04
2022-08-29T09:05:48.571Z,59.88
2022-08-29T09:09:00.323Z,59.55
2022-08-29T09:11:51.274Z,59.90
2022-08-29T09:14:33.583Z,59.87
2022-08-29T09:17:12.325Z,59.14
2022-08-29T09:19:44.765Z,58.74
2022-08-29T09:22:32.836Z,58.16
2022-08-29T09:25:06.674Z,57.94
2022-08-29T09:27:38.684Z,57.67
2022-08-29T09:30:20.429Z,57.25
2022-08-29T09:33:01.527Z,56.86
2022-08-29T09:35:47.241Z,57.05
2022-08-29T09:38:18.487Z,56.56
2022-08-29T09:40:55.667Z,56.62
2022-08-29T09:43:39.098Z,56.85
2022-08-29T09:46:10.426Z,56.33
2022-08-29T09:48:44.741Z,55.84
2022-08-29T09:51:31.478Z,56.39
2022-08-29T09:54:25.857Z,55.35
2022-08-29T09:57:03.078Z,55.71
2022-08-29T09:59:37.775Z,55.43
2022-08-29T10:02:25.639Z,55.22
2022-08-29T10:05:01.874Z,55.26
2022-08-29T10:07:47.428Z,54.68
2022-08-29T10:10:25.373Z,54.46
2022-08-29T10:13:08.191Z,53.71
2022-08-29T10:15:55.666Z,52.54
2022-08-29T10:18:44.601Z,53.11
2022-08-29T10:21:32.482Z,53.20
2022-08-29T10:24:15.860Z,52.96
2022-08-29T10:27:20.915Z,53.44
2022-08-29T10:30:01.676Z,53.71
2022-08-29T10:32:44.471Z,53.54
2022-08-29T10:35:29.715Z,53.63
2022-08-29T10:38:42.712Z,53.29
2022-08-29T10:41:38.864Z,52.46
2022-08-29T10:44:10.195Z,52.45
2022-08-29T10:46:53.294Z,52.45
2022-08-29T10:49:32.022Z,52.25
2022-08-29T10:52:18.244Z,51.61
2022-08-29T10:55:14.854Z,52.23
2022-08-29T10:57:51.314Z,51.87
2022-08-29T11:00:25.432Z,51.57
2022-08-29T11:03:15.528Z,51.57
2022-08-29T11:05:57.490Z,52.23
2022-08-29T11:08:35.506Z,51.24
2022-08-29T11:11:06.840Z,51.41
2022-08-29T11:13:46.522Z,51.15
2022-08-29T11:16:44.054Z,51.57
2022-08-29T11:19:45.755Z,51.61
2022-08-29T11:22:25.683Z,52.42
2022-08-29T11:25:10.384Z,51.83
2022-08-29T11:27:44.961Z,51.66
2022-08-29T11:30:43.677Z,51.66
2022-08-29T11:33:38.201Z,51.62
2022-08-29T11:36:42.016Z,50.98
2022-08-29T11:39:48.703Z,50.61
2022-08-29T11:45:35.682Z,51.81
2022-08-29T11:48:08.961Z,51.12
2022-08-29T11:50:40.308Z,51.46
2022-08-29T11:53:21.433Z,51.44
2022-08-29T11:56:14.538Z,51.48
2022-08-29T11:58:50.340Z,50.77
2022-08-29T12:01:24.366Z,49.92
2022-08-29T12:03:57.099Z,50.62
2022-08-29T12:06:56.787Z,50.29
2022-08-29T12:09:51.053Z,49.96
2022-08-29T12:12:39.769Z,49.20
2022-08-29T12:15:29.885Z,49.05
2022-08-29T12:18:22.603Z,49.61
2022-08-29T12:20:55.643Z,49.36
2022-08-29T12:23:36.480Z,48.97
2022-08-29T12:26:42.890Z,49.47
2022-08-29T12:29:41.273Z,49.37
2022-08-29T12:32:40.066Z,48.89
2022-08-29T12:35:54.978Z,49.88
2022-08-29T12:38:42.225Z,49.42
2022-08-29T12:41:30.716Z,49.79
2022-08-29T12:44:08.816Z,49.77
2022-08-29T12:46:44.385Z,49.17
2022-08-29T12:49:29.495Z,48.84
2022-08-29T12:52:06.290Z,49.36
2022-08-29T12:54:41.882Z,49.66
2022-08-29T12:57:22.628Z,49.21
2022-08-29T12:59:56.266Z,49.41
2022-08-29T13:02:34.960Z,49.24
2022-08-29T13:05:29.217Z,49.27
2022-08-29T13:08:13.480Z,50.10
2022-08-29T13:10:54.838Z,49.88
2022-08-29T13:13:27.488Z,49.55
2022-08-29T13:16:01.412Z,50.33
2022-08-29T13:18:44.340Z,49.88
2022-08-29T13:21:28.133Z,50.24
2022-08-29T13:24:03.570Z,49.68
2022-08-29T13:26:39.929Z,49.83
2022-08-29T13:29:29.758Z,48.72
2022-08-29T13:32:17.323Z,48.54
2022-08-29T13:35:07.521Z,48.64
2022-08-29T13:37:41.248Z,48.11
2022-08-29T13:40:36.552Z,47.79
2022-08-29T13:43:30.476Z,46.83
2022-08-29T13:46:18.242Z,46.60
2022-08-29T13:48:59.239Z,46.58
2022-08-29T13:51:30.690Z,47.49
2022-08-29T13:54:01.988Z,46.84
2022-08-29T13:56:33.556Z,47.13
2022-08-29T13:59:05.160Z,46.65
2022-08-29T14:04:38.155Z,47.74
2022-08-29T14:07:16.169Z,48.19
2022-08-29T14:09:48.474Z,48.38
2022-08-29T14:12:21.420Z,48.39
2022-08-29T14:15:09.711Z,48.19
2022-08-29T14:17:41.679Z,48.54
2022-08-29T14:20:14.381Z,49.37
2022-08-29T14:22:47.051Z,49.78
2022-08-29T14:25:20.158Z,49.85
2022-08-29T14:27:51.618Z,49.05
2022-08-29T14:30:24.676Z,49.33
2022-08-29T14:32:56.096Z,48.77
2022-08-29T14:35:31.865Z,49.27
2022-08-29T14:38:05.225Z,48.89
2022-08-29T14:40:41.783Z,48.45
2022-08-29T14:43:14.297Z,48.13
2022-08-29T14:45:45.626Z,48.35
2022-08-29T14:48:17.667Z,48.32
2022-08-29T14:50:49.029Z,48.27
2022-08-29T14:53:20.348Z,48.12
2022-08-29T14:55:52.361Z,47.58
2022-08-29T14:58:23.920Z,47.66
2022-08-29T15:00:56.298Z,47.61
2022-08-29T15:03:27.627Z,47.49
2022-08-29T15:05:58.964Z,47.40
2022-08-29T15:08:30.967Z,47.13
2022-08-29T15:11:02.344Z,47.75
2022-08-29T15:13:33.654Z,47.98
2022-08-29T15:16:05.243Z,48.37
2022-08-29T15:19:24.789Z,48.81
2022-08-29T15:21:29.374Z,49.50
2022-08-29T15:24:00.743Z,49.78
2022-08-29T15:26:32.186Z,50.72
2022-08-29T15:29:04.009Z,50.73
2022-08-29T15:31:35.711Z,51.39
2022-08-29T15:34:07.151Z,51.78
2022-08-29T15:36:38.531Z,52.00
2022-08-29T15:39:10.365Z,52.43
2022-08-29T15:41:41.747Z,52.08
2022-08-29T15:44:13.387Z,51.91
2022-08-29T15:46:50.446Z,51.32
2022-08-29T15:49:25.046Z,52.00
2022-08-29T15:51:57.287Z,51.90
2022-08-29T15:54:28.656Z,51.88
2022-08-29T15:57:00.345Z,51.29
2022-08-29T15:59:56.415Z,50.63
2022-08-29T16:02:23.163Z,50.83
2022-08-29T16:04:57.018Z,50.34
2022-08-29T16:07:29.612Z,50.50
2022-08-29T16:10:03.637Z,50.73
2022-08-29T16:12:37.275Z,50.80
2022-08-29T16:15:10.057Z,50.41
2022-08-29T16:17:41.600Z,51.04
2022-08-29T16:20:12.956Z,51.54
2022-08-29T16:22:44.591Z,51.35
2022-08-29T16:25:16.673Z,51.74
2022-08-29T16:27:48.485Z,52.07
2022-08-29T16:30:20.624Z,51.74
2022-08-29T16:32:51.999Z,51.41
2022-08-29T16:35:23.931Z,51.05
2022-08-29T16:38:02.857Z,51.59
2022-08-29T16:40:34.973Z,51.31
2022-08-29T16:43:06.339Z,51.40
2022-08-29T16:45:38.174Z,51.78
2022-08-29T16:48:15.689Z,52.05
2022-08-29T16:50:48.929Z,51.93
2022-08-29T16:53:20.650Z,52.60
2022-08-29T16:55:52.101Z,52.58
2022-08-29T16:58:42.287Z,53.15
2022-08-29T17:01:13.622Z,53.20
2022-08-29T17:03:45.043Z,53.69
2022-08-29T17:06:16.347Z,54.67
2022-08-29T17:08:47.644Z,54.72
2022-08-29T17:11:19.936Z,54.97
2022-08-29T17:13:51.939Z,55.38
2022-08-29T17:16:23.805Z,55.99
2022-08-29T17:18:55.230Z,56.29
2022-08-29T17:21:27.137Z,56.36
2022-08-29T17:23:59.467Z,56.16
2022-08-29T17:26:31.213Z,56.75
2022-08-29T17:29:03.757Z,56.99
2022-08-29T17:31:38.883Z,56.63
2022-08-29T17:34:11.472Z,56.87
2022-08-29T17:36:44.129Z,57.00
2022-08-29T17:39:15.430Z,57.34
2022-08-29T17:41:52.045Z,57.66
2022-08-29T17:44:24.549Z,57.61
2022-08-29T17:46:55.910Z,57.77
2022-08-29T17:49:29.927Z,58.36
2022-08-29T17:52:01.539Z,57.95
2022-08-29T17:54:32.841Z,58.57
2022-08-29T17:57:05.400Z,58.71
2022-08-29T17:59:37.322Z,58.66
2022-08-29T18:02:09.558Z,58.68
2022-08-29T18:04:40.945Z,59.39
2022-08-29T18:07:12.381Z,59.33
2022-08-29T18:09:43.782Z,59.48
2022-08-29T18:12:15.988Z,59.39
2022-08-29T18:14:47.407Z,60.22
2022-08-29T18:17:18.708Z,60.68
2022-08-29T18:19:50.002Z,61.05
2022-08-29T18:22:21.327Z,61.34
2022-08-29T18:24:53.191Z,61.51
2022-08-29T18:27:26.966Z,62.11
2022-08-29T18:29:58.271Z,61.97
2022-08-29T18:32:36.500Z,62.46
2022-08-29T18:35:09.629Z,62.75
2022-08-29T18:37:41.060Z,62.95
2022-08-29T18:40:12.492Z,63.30
2022-08-29T18:42:44.262Z,63.75
2022-08-29T18:45:16.053Z,63.61
2022-08-29T18:47:47.490Z,64.23
2022-08-29T18:50:33.998Z,64.32
2022-08-29T18:53:05.253Z,64.26
2022-08-29T18:55:38.646Z,64.43
2022-08-29T18:58:11.112Z,64.66
2022-08-29T19:00:43.183Z,64.99
2022-08-29T19:03:14.731Z,65.29
2022-08-29T19:05:49.766Z,65.66
2022-08-29T19:08:24.692Z,65.76
2022-08-29T19:10:56.154Z,65.83
2022-08-29T19:13:30.713Z,66.07
2022-08-29T19:16:04.629Z,66.33
2022-08-29T19:18:36.066Z,66.72
2022-08-29T19:21:07.421Z,67.00
2022-08-29T19:23:42.769Z,67.16
2022-08-29T19:26:28.165Z,67.41
2022-08-29T19:29:02.648Z,67.40
2022-08-29T19:31:34.021Z,67.35
2022-08-29T19:34:06.162Z,68.01
2022-08-29T19:36:39.353Z,68.01
2022-08-29T19:39:10.956Z,68.05
2022-08-29T19:41:42.386Z,68.26
2022-08-29T19:44:14.475Z,68.32
2022-08-29T19:46:49.236Z,68.45
2022-08-29T19:49:21.126Z,68.66
2022-08-29T19:51:52.497Z,68.78
2022-08-29T19:54:23.935Z,68.91
2022-08-29T19:56:55.247Z,69.02
2022-08-29T19:59:26.638Z,69.33
2022-08-29T20:01:58.970Z,69.23
2022-08-29T20:04:31.996Z,70.04
2022-08-29T20:07:05.228Z,69.63
2022-08-29T20:09:36.546Z,69.91
2022-08-29T20:12:09.948Z,69.58
2022-08-29T20:14:41.797Z,69.70
2022-08-29T20:17:13.244Z,69.79
2022-08-29T20:19:44.565Z,69.87
2022-08-29T20:22:16.374Z,70.06
2022-08-29T20:24:51.950Z,70.47
2022-08-29T20:27:24.065Z,70.26
2022-08-29T20:29:55.373Z,69.99
2022-08-29T20:32:26.724Z,70.72
2022-08-29T20:34:58.078Z,70.66
2022-08-29T20:37:29.723Z,70.93
2022-08-29T20:40:01.151Z,70.75
2022-08-29T20:42:32.570Z,70.86
2022-08-29T20:45:04.201Z,71.21
2022-08-29T20:47:35.794Z,70.75
2022-08-29T20:50:10.105Z,70.96
2022-08-29T20:52:41.434Z,71.22
2022-08-29T20:55:13.038Z,71.23
2022-08-29T20:57:44.386Z,71.35
2022-08-29T21:00:16.041Z,71.59
2022-08-29T21:03:06.191Z,71.63
2022-08-29T21:05:43.713Z,71.76
2022-08-29T21:08:20.578Z,71.90
2022-08-29T21:10:55.047Z,71.68
2022-08-29T21:13:26.397Z,72.09
2022-08-29T21:15:58.976Z,71.52
2022-08-29T21:18:31.317Z,71.79
2022-08-29T21:21:02.714Z,71.75
2022-08-29T21:23:34.204Z,72.32
2022-08-29T21:26:05.716Z,72.35
2022-08-29T21:28:38.025Z,72.45
2022-08-29T21:31:13.487Z,72.34
2022-08-29T21:33:45.469Z,72.80
2022-08-29T21:36:19.646Z,72.75
2022-08-29T21:38:54.072Z,72.64
2022-08-29T21:41:28.152Z,72.94
2022-08-29T21:43:59.873Z,72.91
2022-08-29T21:46:34.327Z,73.25
2022-08-29T21:49:07.023Z,73.24
2022-08-29T21:51:39.216Z,73.50
2022-08-29T21:54:13.698Z,73.23
2022-08-29T21:56:46.959Z,73.40
2022-08-29T21:59:20.320Z,73.41
2022-08-29T22:01:53.278Z,73.54
2022-08-29T22:04:28.862Z,73.65
2022-08-29T22:07:00.662Z,73.76
2022-08-29T22:09:33.302Z,73.49
2022-08-29T22:12:04.907Z,73.47
2022-08-29T22:14:54.769Z,73.31
2022-08-29T22:17:26.063Z,73.45
2022-08-29T22:19:57.393Z,73.52
2022-08-29T22:22:28.721Z,73.50
2022-08-29T22:25:00.025Z,73.51
2022-08-29T22:27:32.292Z,73.75
2022-08-29T22:30:05.920Z,73.73
2022-08-29T22:32:37.912Z,73.93
2022-08-29T22:35:13.083Z,74.50
2022-08-29T22:37:45.738Z,74.37
2022-08-29T22:40:19.425Z,74.26
2022-08-29T22:42:51.032Z,74.30
2022-08-29T22:45:22.485Z,74.42
2022-08-29T22:47:53.890Z,73.78
2022-08-29T22:50:25.749Z,74.08
2022-08-29T22:52:59.078Z,74.22
2022-08-29T22:58:01.713Z,74.04
2022-08-29T23:00:33.696Z,74.25
2022-08-29T23:03:05.135Z,74.16
2022-08-29T23:05:36.493Z,74.48
2022-08-29T23:08:08.065Z,74.12
2022-08-29T23:10:39.418Z,74.21
2022-08-29T23:13:11.762Z,74.52
2022-08-29T23:15:43.203Z,74.12
2022-08-29T23:18:14.591Z,74.20
2022-08-29T23:20:46.905Z,74.21
2022-08-29T23:23:18.331Z,74.26
2022-08-29T23:25:49.758Z,74.18
2022-08-29T23:28:21.072Z,74.19
2022-08-29T23:30:52.456Z,73.99
2022-08-29T23:33:25.878Z,73.91
2022-08-29T23:35:57.207Z,74.17
2022-08-29T23:38:28.526Z,74.03
2022-08-29T23:41:00.904Z,73.95
2022-08-29T23:43:36.917Z,73.99
2022-08-29T23:46:08.833Z,73.57
2022-08-29T23:48:40.295Z,73.92
2022-08-29T23:51:14.505Z,73.88
2022-08-29T23:53:46.325Z,73.90
2022-08-29T23:56:20.397Z,73.58
2022-08-29T23:58:54.792Z,73.83
